createdAt,value
2019-04-29T00:02:13.410Z,58.52
2019-04-29T00:05:04.569Z,58.56
2019-04-29T00:07:54.663Z,58.63
2019-04-29T00:10:45.171Z,58.68
2019-04-29T00:13:35.499Z,58.75
2019-04-29T00:16:32.631Z,58.85
2019-04-29T00:19:39.415Z,58.87
2019-04-29T00:22:29.124Z,58.92
2019-04-29T00:25:19.137Z,58.97
2019-04-29T00:28:08.901Z,58.97
2019-04-29T00:30:58.840Z,58.94
2019-04-29T00:33:48.555Z,58.96
2019-04-29T00:36:51.789Z,59.02
2019-04-29T00:39:59.339Z,59.06
2019-04-29T00:42:55.011Z,59.08
2019-04-29T00:45:45.006Z,59.14
2019-04-29T00:48:34.813Z,59.27
2019-04-29T00:51:25.200Z,59.30
2019-04-29T00:54:39.251Z,59.30
2019-04-29T00:57:29.062Z,59.41
2019-04-29T01:00:28.313Z,59.40
2019-04-29T01:03:18.181Z,59.40
2019-04-29T01:06:08.155Z,59.42
2019-04-29T01:08:58.373Z,59.42
2019-04-29T01:11:48.573Z,59.45
2019-04-29T01:14:38.356Z,59.48
2019-04-29T01:17:28.383Z,59.52
2019-04-29T01:20:18.553Z,59.58
2019-04-29T01:23:08.744Z,59.54
2019-04-29T01:26:02.473Z,59.59
2019-04-29T01:28:54.561Z,59.61
2019-04-29T01:31:45.195Z,59.68
2019-04-29T01:34:41.737Z,59.70
2019-04-29T01:37:37.241Z,59.73
2019-04-29T01:40:52.177Z,59.77
2019-04-29T01:44:01.666Z,59.69
2019-04-29T01:46:51.507Z,59.68
2019-04-29T01:49:41.661Z,59.83
2019-04-29T01:52:31.556Z,59.93
2019-04-29T01:55:21.310Z,60.00
2019-04-29T01:58:11.519Z,60.07
2019-04-29T02:01:01.497Z,60.18
2019-04-29T02:03:51.531Z,60.19
2019-04-29T02:06:41.352Z,60.22
2019-04-29T02:09:39.269Z,60.21
2019-04-29T02:12:29.563Z,60.17
2019-04-29T02:15:19.248Z,60.14
2019-04-29T02:18:09.246Z,60.11
2019-04-29T02:20:58.714Z,60.25
2019-04-29T02:24:04.391Z,60.35
2019-04-29T02:26:53.767Z,60.36
2019-04-29T02:29:43.853Z,60.36
2019-04-29T02:32:33.808Z,60.37
2019-04-29T02:35:23.703Z,60.39
2019-04-29T02:38:22.206Z,60.42
2019-04-29T02:41:19.440Z,60.38
2019-04-29T02:44:11.116Z,60.41
2019-04-29T02:47:00.894Z,60.46
2019-04-29T02:49:50.615Z,60.55
2019-04-29T02:52:40.395Z,60.50
2019-04-29T02:55:40.618Z,60.68
2019-04-29T02:58:36.872Z,60.66
2019-04-29T03:01:39.459Z,60.72
2019-04-29T03:04:32.023Z,60.83
2019-04-29T03:07:22.208Z,60.96
2019-04-29T03:10:13.362Z,60.83
2019-04-29T03:13:03.136Z,60.85
2019-04-29T03:15:52.623Z,60.86
2019-04-29T03:18:47.459Z,60.80
2019-04-29T03:21:45.782Z,60.81
2019-04-29T03:24:36.242Z,60.72
2019-04-29T03:27:26.308Z,60.68
2019-04-29T03:30:16.657Z,60.61
2019-04-29T03:33:06.853Z,60.57
2019-04-29T03:35:57.095Z,60.55
2019-04-29T03:38:47.074Z,60.57
2019-04-29T03:41:36.914Z,60.51
2019-04-29T03:44:26.577Z,60.47
2019-04-29T03:47:18.665Z,60.50
2019-04-29T03:50:08.179Z,60.52
2019-04-29T03:52:57.936Z,60.47
2019-04-29T03:55:47.705Z,60.47
2019-04-29T03:58:37.498Z,60.47
2019-04-29T04:01:32.975Z,60.49
2019-04-29T04:04:40.432Z,60.45
2019-04-29T04:07:48.894Z,60.41
2019-04-29T04:10:38.820Z,60.37
2019-04-29T04:13:28.510Z,60.44
2019-04-29T04:16:27.873Z,60.39
2019-04-29T04:19:18.540Z,60.37
2019-04-29T04:22:08.897Z,60.38
2019-04-29T04:24:59.132Z,60.38
2019-04-29T04:27:49.271Z,60.33
2019-04-29T04:30:39.101Z,60.32
2019-04-29T04:33:29.159Z,60.29
2019-04-29T04:36:19.255Z,60.30
2019-04-29T04:39:10.271Z,60.25
2019-04-29T04:42:00.247Z,60.31
2019-04-29T04:44:50.627Z,60.26
2019-04-29T04:47:40.851Z,60.22
2019-04-29T04:50:30.658Z,60.23
2019-04-29T04:53:20.657Z,60.27
2019-04-29T04:56:10.571Z,60.22
2019-04-29T04:59:00.306Z,60.19
2019-04-29T05:01:50.259Z,60.17
2019-04-29T05:04:40.428Z,60.16
2019-04-29T05:07:30.334Z,60.11
2019-04-29T05:10:20.557Z,60.11
2019-04-29T05:13:10.210Z,60.04
2019-04-29T05:15:59.888Z,59.99
2019-04-29T05:18:49.768Z,60.00
2019-04-29T05:21:39.722Z,59.91
2019-04-29T05:24:30.207Z,59.90
2019-04-29T05:27:19.623Z,59.87
2019-04-29T05:30:10.489Z,59.79
2019-04-29T05:33:00.824Z,59.66
2019-04-29T05:36:21.819Z,59.58
2019-04-29T05:39:19.766Z,59.44
2019-04-29T05:42:15.991Z,59.33
2019-04-29T05:45:11.649Z,59.24
2019-04-29T05:48:10.169Z,59.21
2019-04-29T05:51:29.727Z,59.16
2019-04-29T05:54:19.680Z,59.10
2019-04-29T05:57:09.231Z,59.02
2019-04-29T05:59:59.032Z,59.00
2019-04-29T06:02:48.968Z,58.92
2019-04-29T06:05:38.653Z,58.84
2019-04-29T06:08:28.484Z,58.78
2019-04-29T06:11:18.931Z,58.69
2019-04-29T06:14:09.370Z,58.67
2019-04-29T06:17:02.864Z,58.56
2019-04-29T06:19:51.431Z,58.48
2019-04-29T06:22:41.980Z,58.35
2019-04-29T06:25:32.985Z,58.28
2019-04-29T06:28:26.575Z,58.16
2019-04-29T06:31:14.456Z,58.00
2019-04-29T06:34:05.342Z,57.94
2019-04-29T06:36:56.669Z,57.89
2019-04-29T06:39:46.507Z,57.80
2019-04-29T06:42:36.445Z,57.75
2019-04-29T06:45:26.715Z,57.74
2019-04-29T06:48:16.319Z,57.80
2019-04-29T06:51:06.134Z,58.03
2019-04-29T06:53:55.954Z,58.34
2019-04-29T06:56:46.030Z,58.70
2019-04-29T06:59:36.058Z,59.14
2019-04-29T07:02:25.769Z,59.85
2019-04-29T07:05:15.922Z,60.48
2019-04-29T07:08:05.732Z,60.96
2019-04-29T07:11:00.694Z,61.28
2019-04-29T07:13:47.978Z,61.59
2019-04-29T07:16:38.067Z,61.76
2019-04-29T07:19:28.377Z,62.01
2019-04-29T07:22:20.888Z,62.30
2019-04-29T07:25:09.585Z,62.74
2019-04-29T07:27:59.370Z,62.95
2019-04-29T07:31:00.996Z,63.24
2019-04-29T07:33:39.915Z,63.76
2019-04-29T07:36:29.637Z,64.63
2019-04-29T07:39:19.534Z,65.18
2019-04-29T07:42:09.494Z,65.66
2019-04-29T07:45:17.939Z,66.00
2019-04-29T07:48:08.049Z,66.48
2019-04-29T07:50:59.488Z,66.99
2019-04-29T07:53:49.412Z,67.34
2019-04-29T07:56:42.665Z,67.60
2019-04-29T07:59:33.764Z,67.57
2019-04-29T08:02:22.665Z,68.20
2019-04-29T08:05:12.564Z,68.21
2019-04-29T08:08:03.170Z,68.41
2019-04-29T08:10:56.611Z,68.65
2019-04-29T08:13:47.990Z,69.03
2019-04-29T08:16:37.985Z,69.12
2019-04-29T08:19:29.479Z,69.29
2019-04-29T08:22:22.939Z,69.35
2019-04-29T08:25:11.610Z,69.50
2019-04-29T08:28:01.438Z,69.55
2019-04-29T08:30:51.124Z,69.62
2019-04-29T08:33:42.402Z,69.78
2019-04-29T08:36:32.425Z,69.92
2019-04-29T08:39:25.009Z,69.94
2019-04-29T08:42:18.056Z,70.00
2019-04-29T08:45:34.740Z,70.06
2019-04-29T08:48:23.025Z,70.08
2019-04-29T08:51:12.874Z,70.05
2019-04-29T08:54:02.974Z,70.21
2019-04-29T08:57:02.797Z,70.35
2019-04-29T08:59:45.144Z,70.35
2019-04-29T09:02:35.847Z,70.36
2019-04-29T09:05:25.753Z,70.28
2019-04-29T09:08:15.814Z,70.27
2019-04-29T09:11:08.084Z,70.37
2019-04-29T09:13:57.545Z,70.49
2019-04-29T09:16:47.419Z,70.53
2019-04-29T09:19:39.384Z,70.70
2019-04-29T09:22:30.609Z,70.99
2019-04-29T09:26:01.712Z,71.40
2019-04-29T09:28:40.308Z,71.60
2019-04-29T09:31:30.088Z,71.96
2019-04-29T09:34:24.534Z,72.12
2019-04-29T09:37:11.661Z,72.29
2019-04-29T09:40:02.446Z,72.42
2019-04-29T09:43:27.113Z,72.59
2019-04-29T09:46:21.822Z,72.88
2019-04-29T09:49:11.262Z,73.26
2019-04-29T09:52:01.020Z,73.35
2019-04-29T09:54:50.785Z,73.21
2019-04-29T09:57:40.614Z,74.39
2019-04-29T10:00:42.015Z,74.84
2019-04-29T10:03:56.364Z,75.14
2019-04-29T10:06:50.284Z,75.24
2019-04-29T10:09:40.081Z,75.71
2019-04-29T10:12:29.563Z,75.96
2019-04-29T10:15:22.637Z,75.95
2019-04-29T10:18:19.471Z,76.35
2019-04-29T10:21:11.296Z,76.35
2019-04-29T10:24:01.150Z,76.36
2019-04-29T10:26:51.168Z,76.52
2019-04-29T10:29:43.129Z,76.69
2019-04-29T10:32:33.332Z,76.70
2019-04-29T10:35:23.133Z,76.76
2019-04-29T10:38:13.379Z,76.91
2019-04-29T10:41:09.482Z,77.04
2019-04-29T10:44:12.982Z,77.18
2019-04-29T10:47:19.481Z,77.01
2019-04-29T10:50:20.257Z,77.03
2019-04-29T10:53:15.594Z,77.14
2019-04-29T10:56:05.827Z,77.42
2019-04-29T10:58:55.563Z,77.37
2019-04-29T11:02:24.270Z,77.52
2019-04-29T11:05:30.826Z,77.67
2019-04-29T11:08:39.760Z,79.87
2019-04-29T11:11:34.400Z,83.28
2019-04-29T11:14:24.905Z,84.61
2019-04-29T11:17:16.857Z,85.31
2019-04-29T11:20:11.182Z,85.52
2019-04-29T11:23:09.121Z,85.64
2019-04-29T11:26:22.849Z,85.79
2019-04-29T11:29:13.171Z,86.12
2019-04-29T11:32:05.656Z,86.28
2019-04-29T11:35:28.426Z,86.52
2019-04-29T11:38:20.207Z,86.65
2019-04-29T11:41:12.228Z,86.52
2019-04-29T11:44:02.140Z,86.49
2019-04-29T11:46:52.451Z,86.58
2019-04-29T11:49:54.606Z,86.71
2019-04-29T11:52:44.427Z,86.70
2019-04-29T11:55:34.322Z,86.67
2019-04-29T11:58:30.571Z,86.72
2019-04-29T12:01:46.752Z,86.86
2019-04-29T12:04:36.286Z,86.67
2019-04-29T12:07:31.868Z,86.77
2019-04-29T12:10:17.426Z,86.81
2019-04-29T12:13:10.493Z,86.77
2019-04-29T12:16:24.605Z,86.89
2019-04-29T12:19:22.607Z,86.85
2019-04-29T12:22:26.878Z,86.78
2019-04-29T12:25:05.021Z,86.62
2019-04-29T12:28:01.410Z,86.67
2019-04-29T12:30:50.384Z,86.60
2019-04-29T12:33:46.444Z,86.62
2019-04-29T12:36:55.042Z,86.50
2019-04-29T12:39:46.441Z,86.48
2019-04-29T12:42:55.378Z,86.54
2019-04-29T12:45:55.974Z,86.63
2019-04-29T12:48:46.095Z,86.55
2019-04-29T12:51:35.713Z,86.59
2019-04-29T12:54:25.549Z,86.00
2019-04-29T12:57:18.927Z,86.09
2019-04-29T13:00:10.490Z,85.88
2019-04-29T13:03:06.847Z,86.03
2019-04-29T13:06:23.878Z,86.09
2019-04-29T13:09:19.431Z,85.69
2019-04-29T13:12:19.073Z,85.91
2019-04-29T13:15:22.282Z,85.98
2019-04-29T13:18:23.344Z,85.79
2019-04-29T13:21:10.458Z,85.76
2019-04-29T13:24:13.591Z,85.47
2019-04-29T13:26:52.060Z,85.30
2019-04-29T13:29:42.165Z,84.32
2019-04-29T13:32:35.598Z,83.88
2019-04-29T13:35:24.641Z,83.58
2019-04-29T13:38:14.826Z,83.17
2019-04-29T13:41:13.467Z,83.11
2019-04-29T13:44:05.033Z,83.10
2019-04-29T13:47:15.416Z,83.34
2019-04-29T13:50:18.747Z,83.00
2019-04-29T13:53:01.490Z,82.91
2019-04-29T13:56:10.394Z,82.87
2019-04-29T13:58:44.337Z,83.09
2019-04-29T14:02:01.588Z,82.67
2019-04-29T14:04:55.939Z,82.86
2019-04-29T14:07:43.736Z,84.21
2019-04-29T14:10:33.921Z,85.26
2019-04-29T14:13:23.649Z,85.74
2019-04-29T14:16:13.588Z,86.00
2019-04-29T14:19:04.165Z,86.20
2019-04-29T14:21:54.596Z,86.31
2019-04-29T14:24:46.810Z,86.24
2019-04-29T14:27:36.447Z,86.11
2019-04-29T14:30:38.018Z,86.04
2019-04-29T14:33:24.194Z,85.92
2019-04-29T14:36:11.373Z,85.74
2019-04-29T14:39:01.372Z,86.14
2019-04-29T14:41:57.071Z,86.00
2019-04-29T14:44:58.186Z,85.84
2019-04-29T14:48:12.370Z,85.96
2019-04-29T14:51:02.475Z,85.64
2019-04-29T14:53:56.759Z,85.64
2019-04-29T14:56:43.365Z,85.63
2019-04-29T14:59:32.663Z,85.81
2019-04-29T15:02:24.975Z,85.93
2019-04-29T15:05:14.969Z,85.71
2019-04-29T15:08:04.816Z,85.80
2019-04-29T15:10:54.407Z,85.79
2019-04-29T15:13:47.169Z,85.65
2019-04-29T15:16:44.834Z,85.67
2019-04-29T15:19:56.704Z,85.48
2019-04-29T15:22:46.923Z,85.40
2019-04-29T15:25:36.224Z,85.53
2019-04-29T15:28:26.216Z,85.50
2019-04-29T15:31:17.232Z,85.40
2019-04-29T15:34:08.817Z,85.45
2019-04-29T15:36:58.181Z,85.31
2019-04-29T15:39:48.736Z,85.21
2019-04-29T15:42:42.680Z,84.85
2019-04-29T15:45:32.316Z,85.03
2019-04-29T15:48:22.631Z,84.89
2019-04-29T15:51:13.897Z,85.06
2019-04-29T15:54:03.579Z,84.69
2019-04-29T15:56:53.454Z,84.80
2019-04-29T15:59:48.923Z,84.82
2019-04-29T16:02:35.915Z,84.85
2019-04-29T16:05:56.061Z,84.42
2019-04-29T16:08:45.177Z,84.55
2019-04-29T16:11:52.930Z,84.34
2019-04-29T16:14:43.027Z,84.48
2019-04-29T16:17:37.955Z,84.54
2019-04-29T16:20:24.474Z,84.67
2019-04-29T16:23:14.140Z,85.30
2019-04-29T16:26:04.124Z,85.92
2019-04-29T16:28:53.622Z,86.42
2019-04-29T16:31:44.357Z,86.60
2019-04-29T16:34:44.469Z,86.62
2019-04-29T16:37:31.747Z,86.82
2019-04-29T16:40:20.091Z,86.96
2019-04-29T16:43:27.384Z,87.07
2019-04-29T16:46:16.248Z,87.09
2019-04-29T16:49:06.321Z,86.84
2019-04-29T16:51:56.031Z,87.08
2019-04-29T16:54:46.316Z,86.95
2019-04-29T16:57:36.360Z,87.17
2019-04-29T17:00:28.772Z,87.21
2019-04-29T17:03:18.993Z,87.15
2019-04-29T17:06:09.597Z,86.97
2019-04-29T17:09:23.209Z,86.93
2019-04-29T17:12:13.244Z,86.99
2019-04-29T17:15:10.731Z,86.92
2019-04-29T17:17:54.516Z,86.94
2019-04-29T17:20:44.278Z,86.86
2019-04-29T17:23:34.171Z,87.06
2019-04-29T17:26:27.188Z,87.11
2019-04-29T17:29:49.331Z,87.15
2019-04-29T17:33:08.371Z,87.28
2019-04-29T17:35:59.509Z,87.57
2019-04-29T17:38:49.058Z,87.66
2019-04-29T17:41:39.388Z,87.74
2019-04-29T17:44:38.062Z,87.91
2019-04-29T17:47:49.815Z,88.13
2019-04-29T17:50:48.025Z,88.21
2019-04-29T17:53:42.033Z,88.33
2019-04-29T17:56:42.453Z,88.44
2019-04-29T18:00:05.041Z,88.53
2019-04-29T18:03:12.046Z,88.52
2019-04-29T18:06:24.387Z,88.39
2019-04-29T18:09:29.652Z,88.39
2019-04-29T18:12:22.242Z,88.30
2019-04-29T18:15:17.642Z,88.22
2019-04-29T18:18:09.898Z,88.18
2019-04-29T18:21:17.497Z,87.81
2019-04-29T18:24:15.368Z,87.96
2019-04-29T18:27:08.928Z,87.95
2019-04-29T18:29:58.045Z,88.00
2019-04-29T18:32:47.795Z,88.01
2019-04-29T18:35:38.068Z,87.94
2019-04-29T18:38:28.957Z,88.03
2019-04-29T18:41:24.570Z,87.66
2019-04-29T18:44:18.951Z,87.82
2019-04-29T18:47:02.164Z,87.58
2019-04-29T18:49:52.476Z,87.59
2019-04-29T18:52:42.796Z,87.47
2019-04-29T18:55:32.743Z,87.22
2019-04-29T18:58:25.014Z,87.12
2019-04-29T19:01:14.989Z,87.08
2019-04-29T19:04:21.990Z,87.03
2019-04-29T19:07:11.858Z,86.94
2019-04-29T19:10:02.057Z,86.71
2019-04-29T19:12:59.757Z,86.57
2019-04-29T19:15:48.503Z,86.68
2019-04-29T19:18:36.878Z,86.53
2019-04-29T19:21:30.481Z,86.50
2019-04-29T19:24:18.426Z,86.50
2019-04-29T19:27:10.019Z,86.27
2019-04-29T19:30:01.111Z,86.34
2019-04-29T19:32:53.882Z,86.20
2019-04-29T19:35:42.572Z,86.14
2019-04-29T19:38:32.471Z,86.15
2019-04-29T19:41:22.017Z,86.23
2019-04-29T19:44:12.251Z,86.07
2019-04-29T19:47:02.168Z,85.98
2019-04-29T19:49:52.407Z,86.18
2019-04-29T19:52:42.258Z,86.19
2019-04-29T19:55:33.144Z,86.04
2019-04-29T19:58:29.464Z,85.84
2019-04-29T20:01:26.184Z,85.84
2019-04-29T20:04:22.475Z,85.65
2019-04-29T20:07:12.158Z,85.68
2019-04-29T20:10:05.726Z,85.81
2019-04-29T20:12:56.796Z,85.73
2019-04-29T20:16:12.390Z,85.58
2019-04-29T20:19:12.232Z,85.46
2019-04-29T20:21:56.131Z,85.46
2019-04-29T20:24:49.747Z,85.62
2019-04-29T20:27:38.162Z,85.54
2019-04-29T20:30:28.698Z,85.48
2019-04-29T20:33:18.570Z,85.32
2019-04-29T20:36:08.288Z,85.01
2019-04-29T20:38:58.361Z,84.75
2019-04-29T20:41:48.993Z,84.65
2019-04-29T20:44:44.481Z,84.39
2019-04-29T20:47:37.880Z,84.47
2019-04-29T20:50:22.106Z,84.44
2019-04-29T20:53:30.762Z,84.37
2019-04-29T20:56:25.267Z,84.41
2019-04-29T20:59:15.324Z,84.37
2019-04-29T21:02:12.583Z,84.30
2019-04-29T21:04:58.448Z,84.31
2019-04-29T21:07:49.205Z,84.33
2019-04-29T21:10:43.053Z,84.30
2019-04-29T21:13:39.622Z,84.17
2019-04-29T21:16:34.797Z,84.11
2019-04-29T21:19:24.862Z,84.28
2019-04-29T21:22:22.020Z,84.03
2019-04-29T21:25:07.028Z,84.28
2019-04-29T21:27:58.187Z,84.24
2019-04-29T21:30:48.204Z,84.15
2019-04-29T21:33:38.101Z,84.17
2019-04-29T21:36:47.014Z,84.19
2019-04-29T21:39:56.044Z,84.44
2019-04-29T21:42:52.295Z,84.53
2019-04-29T21:45:44.969Z,84.58
2019-04-29T21:48:35.114Z,84.62
2019-04-29T21:51:25.575Z,84.57
2019-04-29T21:54:15.738Z,84.61
2019-04-29T21:57:05.857Z,84.51
2019-04-29T21:59:55.856Z,84.55
2019-04-29T22:02:49.076Z,84.58
2019-04-29T22:05:37.651Z,84.55
2019-04-29T22:08:30.097Z,84.53
2019-04-29T22:11:18.930Z,84.42
2019-04-29T22:14:14.071Z,84.29
2019-04-29T22:17:02.187Z,84.17
2019-04-29T22:19:51.404Z,83.91
2019-04-29T22:22:41.746Z,83.35
2019-04-29T22:25:31.932Z,82.72
2019-04-29T22:28:22.138Z,82.17
2019-04-29T22:31:12.285Z,81.85
2019-04-29T22:34:02.219Z,81.65
2019-04-29T22:36:52.643Z,81.62
2019-04-29T22:39:43.694Z,81.51
2019-04-29T22:42:51.442Z,81.54
2019-04-29T22:45:41.036Z,81.39
2019-04-29T22:48:30.983Z,81.37
2019-04-29T22:51:21.209Z,81.41
2019-04-29T22:54:11.127Z,81.32
2019-04-29T22:57:01.634Z,81.17
2019-04-29T22:59:54.020Z,81.05
2019-04-29T23:02:42.811Z,80.86
2019-04-29T23:05:33.087Z,80.78
2019-04-29T23:08:22.715Z,80.64
2019-04-29T23:11:12.591Z,80.69
2019-04-29T23:14:06.650Z,80.80
2019-04-29T23:16:55.591Z,80.69
2019-04-29T23:19:50.751Z,80.65
2019-04-29T23:22:47.514Z,80.45
2019-04-29T23:25:59.865Z,80.35
2019-04-29T23:28:48.441Z,80.52
2019-04-29T23:31:38.469Z,80.47
2019-04-29T23:34:29.580Z,80.46
2019-04-29T23:37:23.866Z,80.30
2019-04-29T23:40:11.504Z,80.40
2019-04-29T23:43:01.372Z,80.48
2019-04-29T23:45:51.828Z,80.46
2019-04-29T23:48:42.376Z,80.38
2019-04-29T23:51:34.264Z,80.30
2019-04-29T23:54:25.200Z,80.35
2019-04-29T23:57:25.520Z,80.33
